sensor_id;sensor_type;location;lat;lon;timestamp;temperature;humidity
3275;DHT22;1649;53.672;10.064;2024-03-08T00:01:39;1.40;99.90
3275;DHT22;1649;53.672;10.064;2024-03-08T00:04:06;1.40;99.90
3275;DHT22;1649;53.672;10.064;2024-03-08T00:06:32;1.40;99.90
3275;DHT22;1649;53.672;10.064;2024-03-08T00:08:57;1.30;99.90
3275;DHT22;1649;53.672;10.064;2024-03-08T00:11:23;1.20;99.90
3275;DHT22;1649;53.672;10.064;2024-03-08T00:13:51;1.20;99.90
3275;DHT22;1649;53.672;10.064;2024-03-08T00:16:18;1.20;99.90
3275;DHT22;1649;53.672;10.064;2024-03-08T00:18:45;1.20;99.90
3275;DHT22;1649;53.672;10.064;2024-03-08T00:21:10;1.20;99.90
3275;DHT22;1649;53.672;10.064;2024-03-08T00:23:37;1.20;99.90
3275;DHT22;1649;53.672;10.064;2024-03-08T00:26:03;1.20;99.90
3275;DHT22;1649;53.672;10.064;2024-03-08T00:28:29;1.20;99.90
3275;DHT22;1649;53.672;10.064;2024-03-08T00:30:56;1.10;99.90
3275;DHT22;1649;53.672;10.064;2024-03-08T00:33:21;1.10;99.90
3275;DHT22;1649;53.672;10.064;2024-03-08T00:35:47;1.10;99.90
3275;DHT22;1649;53.672;10.064;2024-03-08T00:38:13;1.10;99.90
3275;DHT22;1649;53.672;10.064;2024-03-08T00:40:38;1.10;99.90
3275;DHT22;1649;53.672;10.064;2024-03-08T00:43:05;1.10;99.90
3275;DHT22;1649;53.672;10.064;2024-03-08T00:45:31;1.10;99.90
3275;DHT22;1649;53.672;10.064;2024-03-08T00:47:56;1.10;99.90
3275;DHT22;1649;53.672;10.064;2024-03-08T00:50:22;1.10;99.90
3275;DHT22;1649;53.672;10.064;2024-03-08T00:52:48;1.10;99.90
3275;DHT22;1649;53.672;10.064;2024-03-08T00:55:13;1.10;99.90
3275;DHT22;1649;53.672;10.064;2024-03-08T00:57:39;1.10;99.90
3275;DHT22;1649;53.672;10.064;2024-03-08T01:00:06;1.10;99.90
3275;DHT22;1649;53.672;10.064;2024-03-08T01:02:35;1.10;99.90
3275;DHT22;1649;53.672;10.064;2024-03-08T01:05:01;1.20;99.90
3275;DHT22;1649;53.672;10.064;2024-03-08T01:07:27;1.10;99.90
3275;DHT22;1649;53.672;10.064;2024-03-08T01:09:52;0.90;99.90
3275;DHT22;1649;53.672;10.064;2024-03-08T01:12:18;0.90;99.90
3275;DHT22;1649;53.672;10.064;2024-03-08T01:14:43;0.90;99.90
3275;DHT22;1649;53.672;10.064;2024-03-08T01:17:09;0.90;99.90
3275;DHT22;1649;53.672;10.064;2024-03-08T01:19:35;0.90;99.90
3275;DHT22;1649;53.672;10.064;2024-03-08T01:22:00;0.90;99.90
3275;DHT22;1649;53.672;10.064;2024-03-08T01:24:26;0.80;99.90
3275;DHT22;1649;53.672;10.064;2024-03-08T01:26:51;0.80;99.90
3275;DHT22;1649;53.672;10.064;2024-03-08T01:29:17;0.90;99.90
3275;DHT22;1649;53.672;10.064;2024-03-08T01:31:42;0.80;99.90
3275;DHT22;1649;53.672;10.064;2024-03-08T01:34:08;0.90;99.90
3275;DHT22;1649;53.672;10.064;2024-03-08T01:36:33;0.80;99.90
3275;DHT22;1649;53.672;10.064;2024-03-08T01:38:59;0.80;99.90
3275;DHT22;1649;53.672;10.064;2024-03-08T01:41:24;0.80;99.90
3275;DHT22;1649;53.672;10.064;2024-03-08T01:43:50;0.70;99.90
3275;DHT22;1649;53.672;10.064;2024-03-08T01:46:19;0.70;99.90
3275;DHT22;1649;53.672;10.064;2024-03-08T01:48:47;0.70;99.90
3275;DHT22;1649;53.672;10.064;2024-03-08T01:51:13;0.60;99.90
3275;DHT22;1649;53.672;10.064;2024-03-08T01:53:40;0.70;99.90
3275;DHT22;1649;53.672;10.064;2024-03-08T01:56:08;0.60;99.90
3275;DHT22;1649;53.672;10.064;2024-03-08T01:58:34;0.60;99.90
3275;DHT22;1649;53.672;10.064;2024-03-08T02:01:01;0.50;99.90
3275;DHT22;1649;53.672;10.064;2024-03-08T02:03:28;0.60;99.90
3275;DHT22;1649;53.672;10.064;2024-03-08T02:05:56;0.50;99.90
3275;DHT22;1649;53.672;10.064;2024-03-08T02:08:21;0.50;99.90
3275;DHT22;1649;53.672;10.064;2024-03-08T02:10:48;0.50;99.90
3275;DHT22;1649;53.672;10.064;2024-03-08T02:13:14;0.50;99.90
3275;DHT22;1649;53.672;10.064;2024-03-08T02:18:21;0.50;99.90
3275;DHT22;1649;53.672;10.064;2024-03-08T02:20:49;0.50;99.90
3275;DHT22;1649;53.672;10.064;2024-03-08T02:23:15;0.50;99.90
3275;DHT22;1649;53.672;10.064;2024-03-08T02:25:40;0.50;99.90
3275;DHT22;1649;53.672;10.064;2024-03-08T02:28:12;0.50;99.90
3275;DHT22;1649;53.672;10.064;2024-03-08T02:30:37;0.50;99.90
3275;DHT22;1649;53.672;10.064;2024-03-08T02:33:07;0.50;99.90
3275;DHT22;1649;53.672;10.064;2024-03-08T02:35:34;0.50;99.90
3275;DHT22;1649;53.672;10.064;2024-03-08T02:38:00;0.50;99.90
3275;DHT22;1649;53.672;10.064;2024-03-08T02:40:26;0.50;99.90
3275;DHT22;1649;53.672;10.064;2024-03-08T02:42:52;0.50;99.90
3275;DHT22;1649;53.672;10.064;2024-03-08T02:45:18;0.50;99.90
3275;DHT22;1649;53.672;10.064;2024-03-08T02:47:43;0.40;99.90
3275;DHT22;1649;53.672;10.064;2024-03-08T02:50:09;0.40;99.90
3275;DHT22;1649;53.672;10.064;2024-03-08T02:52:34;0.40;99.90
3275;DHT22;1649;53.672;10.064;2024-03-08T02:55:03;0.40;99.90
3275;DHT22;1649;53.672;10.064;2024-03-08T02:57:31;0.40;99.90
3275;DHT22;1649;53.672;10.064;2024-03-08T02:59:57;0.40;99.90
3275;DHT22;1649;53.672;10.064;2024-03-08T03:02:25;0.40;99.90
3275;DHT22;1649;53.672;10.064;2024-03-08T03:04:52;0.40;99.90
3275;DHT22;1649;53.672;10.064;2024-03-08T03:07:17;0.40;99.90
3275;DHT22;1649;53.672;10.064;2024-03-08T03:09:43;0.40;99.90
3275;DHT22;1649;53.672;10.064;2024-03-08T03:12:08;0.30;99.90
3275;DHT22;1649;53.672;10.064;2024-03-08T03:14:35;0.30;99.90
3275;DHT22;1649;53.672;10.064;2024-03-08T03:17:04;0.30;99.90
3275;DHT22;1649;53.672;10.064;2024-03-08T03:19:30;0.40;99.90
3275;DHT22;1649;53.672;10.064;2024-03-08T03:21:55;0.30;99.90
3275;DHT22;1649;53.672;10.064;2024-03-08T03:24:21;0.20;99.90
3275;DHT22;1649;53.672;10.064;2024-03-08T03:26:48;0.20;99.90
3275;DHT22;1649;53.672;10.064;2024-03-08T03:29:15;0.20;99.90
3275;DHT22;1649;53.672;10.064;2024-03-08T03:31:42;0.20;99.90
3275;DHT22;1649;53.672;10.064;2024-03-08T03:34:08;0.10;99.90
3275;DHT22;1649;53.672;10.064;2024-03-08T03:36:34;0.10;99.90
3275;DHT22;1649;53.672;10.064;2024-03-08T03:39:01;0.00;99.90
3275;DHT22;1649;53.672;10.064;2024-03-08T03:41:41;0.00;99.90
3275;DHT22;1649;53.672;10.064;2024-03-08T03:44:07;0.10;99.90
3275;DHT22;1649;53.672;10.064;2024-03-08T03:46:33;0.10;99.90
3275;DHT22;1649;53.672;10.064;2024-03-08T03:48:58;0.20;99.90
3275;DHT22;1649;53.672;10.064;2024-03-08T03:51:24;0.20;99.90
3275;DHT22;1649;53.672;10.064;2024-03-08T03:53:50;0.20;99.90
3275;DHT22;1649;53.672;10.064;2024-03-08T03:56:16;0.10;99.90
3275;DHT22;1649;53.672;10.064;2024-03-08T03:58:41;0.10;99.90
3275;DHT22;1649;53.672;10.064;2024-03-08T04:01:07;0.10;99.90
3275;DHT22;1649;53.672;10.064;2024-03-08T04:03:33;-0.10;99.90
3275;DHT22;1649;53.672;10.064;2024-03-08T04:05:58;-0.10;99.90
3275;DHT22;1649;53.672;10.064;2024-03-08T04:08:24;0.00;99.90
3275;DHT22;1649;53.672;10.064;2024-03-08T04:10:50;0.00;99.90
3275;DHT22;1649;53.672;10.064;2024-03-08T04:13:16;0.00;99.90
3275;DHT22;1649;53.672;10.064;2024-03-08T04:15:42;-0.10;99.90
3275;DHT22;1649;53.672;10.064;2024-03-08T04:18:09;-0.10;99.90
3275;DHT22;1649;53.672;10.064;2024-03-08T04:20:35;-0.20;99.90
3275;DHT22;1649;53.672;10.064;2024-03-08T04:23:01;-0.20;99.90
3275;DHT22;1649;53.672;10.064;2024-03-08T04:25:27;-0.20;99.90
3275;DHT22;1649;53.672;10.064;2024-03-08T04:27:52;-0.20;99.90
3275;DHT22;1649;53.672;10.064;2024-03-08T04:30:18;-0.20;99.90
3275;DHT22;1649;53.672;10.064;2024-03-08T04:32:44;-0.10;99.90
3275;DHT22;1649;53.672;10.064;2024-03-08T04:35:09;-0.10;99.90
3275;DHT22;1649;53.672;10.064;2024-03-08T04:37:35;-0.10;99.90
3275;DHT22;1649;53.672;10.064;2024-03-08T04:40:00;-0.20;99.90
3275;DHT22;1649;53.672;10.064;2024-03-08T04:42:27;-0.10;99.90
3275;DHT22;1649;53.672;10.064;2024-03-08T04:44:54;-0.20;99.90
3275;DHT22;1649;53.672;10.064;2024-03-08T04:47:19;-0.10;99.90
3275;DHT22;1649;53.672;10.064;2024-03-08T04:49:45;-0.20;99.90
3275;DHT22;1649;53.672;10.064;2024-03-08T04:52:12;-0.20;99.90
3275;DHT22;1649;53.672;10.064;2024-03-08T04:54:37;-0.20;99.90
3275;DHT22;1649;53.672;10.064;2024-03-08T04:57:03;-0.20;99.90
3275;DHT22;1649;53.672;10.064;2024-03-08T04:59:30;-0.30;99.90
3275;DHT22;1649;53.672;10.064;2024-03-08T05:01:55;-0.30;99.90
3275;DHT22;1649;53.672;10.064;2024-03-08T05:04:21;-0.40;99.90
3275;DHT22;1649;53.672;10.064;2024-03-08T05:06:47;-0.40;99.90
3275;DHT22;1649;53.672;10.064;2024-03-08T05:09:13;-0.30;99.90
3275;DHT22;1649;53.672;10.064;2024-03-08T05:11:43;-0.30;99.90
3275;DHT22;1649;53.672;10.064;2024-03-08T05:14:09;-0.30;99.90
3275;DHT22;1649;53.672;10.064;2024-03-08T05:16:35;-0.30;99.90
3275;DHT22;1649;53.672;10.064;2024-03-08T05:19:02;-0.40;99.90
3275;DHT22;1649;53.672;10.064;2024-03-08T05:21:27;-0.40;99.90
3275;DHT22;1649;53.672;10.064;2024-03-08T05:23:54;-0.40;99.90
3275;DHT22;1649;53.672;10.064;2024-03-08T05:26:20;-0.40;99.90
3275;DHT22;1649;53.672;10.064;2024-03-08T05:28:45;-0.40;99.90
3275;DHT22;1649;53.672;10.064;2024-03-08T05:31:20;-0.50;99.90
3275;DHT22;1649;53.672;10.064;2024-03-08T05:33:49;-0.40;99.90
3275;DHT22;1649;53.672;10.064;2024-03-08T05:36:15;-0.50;99.90
3275;DHT22;1649;53.672;10.064;2024-03-08T05:38:43;-0.40;99.90
3275;DHT22;1649;53.672;10.064;2024-03-08T05:41:10;-0.50;99.90
3275;DHT22;1649;53.672;10.064;2024-03-08T05:43:35;-0.50;99.90
3275;DHT22;1649;53.672;10.064;2024-03-08T05:46:01;-0.50;99.90
3275;DHT22;1649;53.672;10.064;2024-03-08T05:48:26;-0.50;99.90
3275;DHT22;1649;53.672;10.064;2024-03-08T05:50:53;-0.40;99.90
3275;DHT22;1649;53.672;10.064;2024-03-08T05:53:18;-0.40;99.90
3275;DHT22;1649;53.672;10.064;2024-03-08T05:55:44;-0.40;99.90
3275;DHT22;1649;53.672;10.064;2024-03-08T05:58:10;-0.50;99.90
3275;DHT22;1649;53.672;10.064;2024-03-08T06:00:36;-0.50;99.90
3275;DHT22;1649;53.672;10.064;2024-03-08T06:03:02;-0.60;99.90
3275;DHT22;1649;53.672;10.064;2024-03-08T06:05:28;-0.60;99.90
3275;DHT22;1649;53.672;10.064;2024-03-08T06:07:53;-0.70;99.90
3275;DHT22;1649;53.672;10.064;2024-03-08T06:10:19;-0.60;99.90
3275;DHT22;1649;53.672;10.064;2024-03-08T06:12:45;-0.50;99.90
3275;DHT22;1649;53.672;10.064;2024-03-08T06:15:11;-0.60;99.90
3275;DHT22;1649;53.672;10.064;2024-03-08T06:17:43;-0.50;99.90
3275;DHT22;1649;53.672;10.064;2024-03-08T06:20:09;-0.60;99.90
3275;DHT22;1649;53.672;10.064;2024-03-08T06:22:38;-0.60;99.90
3275;DHT22;1649;53.672;10.064;2024-03-08T06:25:07;-0.60;99.90
3275;DHT22;1649;53.672;10.064;2024-03-08T06:27:32;-0.50;99.90
3275;DHT22;1649;53.672;10.064;2024-03-08T06:29:59;-0.40;99.90
3275;DHT22;1649;53.672;10.064;2024-03-08T06:32:25;-0.40;99.90
3275;DHT22;1649;53.672;10.064;2024-03-08T06:34:50;-0.40;99.90
3275;DHT22;1649;53.672;10.064;2024-03-08T06:37:16;-0.40;99.90
3275;DHT22;1649;53.672;10.064;2024-03-08T06:39:50;-0.40;99.90
3275;DHT22;1649;53.672;10.064;2024-03-08T06:42:17;-0.30;99.90
3275;DHT22;1649;53.672;10.064;2024-03-08T06:44:42;-0.30;99.90
3275;DHT22;1649;53.672;10.064;2024-03-08T06:47:14;-0.40;99.90
3275;DHT22;1649;53.672;10.064;2024-03-08T06:49:44;-0.40;99.90
3275;DHT22;1649;53.672;10.064;2024-03-08T06:52:10;-0.30;99.90
3275;DHT22;1649;53.672;10.064;2024-03-08T06:54:36;-0.20;99.90
3275;DHT22;1649;53.672;10.064;2024-03-08T06:57:03;-0.10;99.90
3275;DHT22;1649;53.672;10.064;2024-03-08T06:59:29;-0.10;99.90
3275;DHT22;1649;53.672;10.064;2024-03-08T07:01:54;-0.10;99.90
3275;DHT22;1649;53.672;10.064;2024-03-08T07:04:20;-0.10;99.90
3275;DHT22;1649;53.672;10.064;2024-03-08T07:06:47;-0.20;99.90
3275;DHT22;1649;53.672;10.064;2024-03-08T07:09:15;-0.10;99.90
3275;DHT22;1649;53.672;10.064;2024-03-08T07:11:42;-0.10;99.90
3275;DHT22;1649;53.672;10.064;2024-03-08T07:14:08;0.00;99.90
3275;DHT22;1649;53.672;10.064;2024-03-08T07:16:34;0.00;99.90
3275;DHT22;1649;53.672;10.064;2024-03-08T07:19:01;0.00;99.90
3275;DHT22;1649;53.672;10.064;2024-03-08T07:21:26;0.10;99.90
3275;DHT22;1649;53.672;10.064;2024-03-08T07:23:52;0.00;99.90
3275;DHT22;1649;53.672;10.064;2024-03-08T07:26:27;0.10;99.90
3275;DHT22;1649;53.672;10.064;2024-03-08T07:28:53;0.10;99.90
3275;DHT22;1649;53.672;10.064;2024-03-08T07:31:20;0.20;99.90
3275;DHT22;1649;53.672;10.064;2024-03-08T07:33:51;0.30;99.90
3275;DHT22;1649;53.672;10.064;2024-03-08T07:36:21;0.30;99.90
3275;DHT22;1649;53.672;10.064;2024-03-08T07:38:47;0.40;99.90
3275;DHT22;1649;53.672;10.064;2024-03-08T07:41:13;0.60;99.90
3275;DHT22;1649;53.672;10.064;2024-03-08T07:43:40;0.70;99.90
3275;DHT22;1649;53.672;10.064;2024-03-08T07:46:05;0.80;99.90
3275;DHT22;1649;53.672;10.064;2024-03-08T07:48:31;0.90;99.90
3275;DHT22;1649;53.672;10.064;2024-03-08T07:50:56;1.10;99.90
3275;DHT22;1649;53.672;10.064;2024-03-08T07:53:22;1.40;99.90
3275;DHT22;1649;53.672;10.064;2024-03-08T07:55:49;1.70;99.90
3275;DHT22;1649;53.672;10.064;2024-03-08T07:58:15;2.30;99.90
3275;DHT22;1649;53.672;10.064;2024-03-08T08:00:40;2.70;99.90
3275;DHT22;1649;53.672;10.064;2024-03-08T08:03:08;2.80;99.90
3275;DHT22;1649;53.672;10.064;2024-03-08T08:05:34;3.00;99.90
3275;DHT22;1649;53.672;10.064;2024-03-08T08:08:01;2.90;99.90
3275;DHT22;1649;53.672;10.064;2024-03-08T08:10:29;2.70;99.90
3275;DHT22;1649;53.672;10.064;2024-03-08T08:12:55;2.60;99.90
3275;DHT22;1649;53.672;10.064;2024-03-08T08:15:22;2.70;99.90
3275;DHT22;1649;53.672;10.064;2024-03-08T08:17:48;2.50;99.90
3275;DHT22;1649;53.672;10.064;2024-03-08T08:20:13;2.40;99.90
3275;DHT22;1649;53.672;10.064;2024-03-08T08:22:39;2.30;99.90
3275;DHT22;1649;53.672;10.064;2024-03-08T08:25:14;2.40;99.90
3275;DHT22;1649;53.672;10.064;2024-03-08T08:27:45;2.40;99.90
3275;DHT22;1649;53.672;10.064;2024-03-08T08:30:11;2.30;99.90
3275;DHT22;1649;53.672;10.064;2024-03-08T08:32:38;2.40;99.90
3275;DHT22;1649;53.672;10.064;2024-03-08T08:35:05;2.40;99.90
3275;DHT22;1649;53.672;10.064;2024-03-08T08:37:31;2.30;99.90
3275;DHT22;1649;53.672;10.064;2024-03-08T08:39:57;2.40;99.90
3275;DHT22;1649;53.672;10.064;2024-03-08T08:42:23;2.40;99.90
3275;DHT22;1649;53.672;10.064;2024-03-08T08:44:49;2.80;99.90
3275;DHT22;1649;53.672;10.064;2024-03-08T08:47:16;3.40;99.90
3275;DHT22;1649;53.672;10.064;2024-03-08T08:49:44;4.00;99.90
3275;DHT22;1649;53.672;10.064;2024-03-08T08:52:11;4.70;99.90
3275;DHT22;1649;53.672;10.064;2024-03-08T08:54:37;5.30;99.90
3275;DHT22;1649;53.672;10.064;2024-03-08T08:57:02;5.90;99.90
3275;DHT22;1649;53.672;10.064;2024-03-08T08:59:36;6.50;99.90
3275;DHT22;1649;53.672;10.064;2024-03-08T09:02:02;6.60;99.90
3275;DHT22;1649;53.672;10.064;2024-03-08T09:04:29;6.70;99.90
3275;DHT22;1649;53.672;10.064;2024-03-08T09:06:56;7.10;99.90
3275;DHT22;1649;53.672;10.064;2024-03-08T09:09:22;7.30;99.90
3275;DHT22;1649;53.672;10.064;2024-03-08T09:11:47;7.20;99.90
3275;DHT22;1649;53.672;10.064;2024-03-08T09:14:15;7.30;99.90
3275;DHT22;1649;53.672;10.064;2024-03-08T09:16:40;7.60;99.90
3275;DHT22;1649;53.672;10.064;2024-03-08T09:19:06;7.90;99.90
3275;DHT22;1649;53.672;10.064;2024-03-08T09:21:32;8.50;99.90
3275;DHT22;1649;53.672;10.064;2024-03-08T09:23:58;8.60;99.90
3275;DHT22;1649;53.672;10.064;2024-03-08T09:26:24;8.30;99.90
3275;DHT22;1649;53.672;10.064;2024-03-08T09:28:49;8.50;99.90
3275;DHT22;1649;53.672;10.064;2024-03-08T09:31:15;8.50;99.70
3275;DHT22;1649;53.672;10.064;2024-03-08T09:33:42;8.60;99.80
3275;DHT22;1649;53.672;10.064;2024-03-08T09:36:07;8.10;98.70
3275;DHT22;1649;53.672;10.064;2024-03-08T09:38:33;7.80;99.00
3275;DHT22;1649;53.672;10.064;2024-03-08T09:41:01;8.20;99.90
3275;DHT22;1649;53.672;10.064;2024-03-08T09:43:29;8.20;99.30
3275;DHT22;1649;53.672;10.064;2024-03-08T09:45:55;8.20;99.20
3275;DHT22;1649;53.672;10.064;2024-03-08T09:48:21;8.30;99.70
3275;DHT22;1649;53.672;10.064;2024-03-08T09:50:47;8.00;99.10
3275;DHT22;1649;53.672;10.064;2024-03-08T09:53:13;8.10;99.90
3275;DHT22;1649;53.672;10.064;2024-03-08T09:55:39;8.40;99.70
3275;DHT22;1649;53.672;10.064;2024-03-08T09:58:15;8.80;99.60
3275;DHT22;1649;53.672;10.064;2024-03-08T10:00:47;8.90;97.70
3275;DHT22;1649;53.672;10.064;2024-03-08T10:03:13;8.60;98.40
3275;DHT22;1649;53.672;10.064;2024-03-08T10:05:40;8.40;98.10
3275;DHT22;1649;53.672;10.064;2024-03-08T10:08:06;8.60;98.10
3275;DHT22;1649;53.672;10.064;2024-03-08T10:10:34;8.80;98.80
3275;DHT22;1649;53.672;10.064;2024-03-08T10:13:00;9.10;98.30
3275;DHT22;1649;53.672;10.064;2024-03-08T10:15:27;9.10;98.60
3275;DHT22;1649;53.672;10.064;2024-03-08T10:17:55;9.20;97.20
3275;DHT22;1649;53.672;10.064;2024-03-08T10:20:21;8.90;96.30
3275;DHT22;1649;53.672;10.064;2024-03-08T10:22:49;8.80;97.10
3275;DHT22;1649;53.672;10.064;2024-03-08T10:25:14;8.90;96.80
3275;DHT22;1649;53.672;10.064;2024-03-08T10:27:40;8.90;96.40
3275;DHT22;1649;53.672;10.064;2024-03-08T10:30:12;9.00;97.40
3275;DHT22;1649;53.672;10.064;2024-03-08T10:32:39;9.20;96.40
3275;DHT22;1649;53.672;10.064;2024-03-08T10:35:07;9.30;95.30
3275;DHT22;1649;53.672;10.064;2024-03-08T10:37:46;9.60;94.50
3275;DHT22;1649;53.672;10.064;2024-03-08T10:40:19;9.60;94.60
3275;DHT22;1649;53.672;10.064;2024-03-08T10:42:52;9.50;94.40
3275;DHT22;1649;53.672;10.064;2024-03-08T10:50:32;8.90;95.00
3275;DHT22;1649;53.672;10.064;2024-03-08T10:53:00;8.40;93.40
3275;DHT22;1649;53.672;10.064;2024-03-08T10:55:27;8.40;94.40
3275;DHT22;1649;53.672;10.064;2024-03-08T10:57:53;8.70;94.50
3275;DHT22;1649;53.672;10.064;2024-03-08T11:00:19;9.00;94.00
3275;DHT22;1649;53.672;10.064;2024-03-08T11:02:52;8.80;93.50
3275;DHT22;1649;53.672;10.064;2024-03-08T11:05:37;8.70;93.90
3275;DHT22;1649;53.672;10.064;2024-03-08T11:08:26;8.90;94.50
3275;DHT22;1649;53.672;10.064;2024-03-08T11:10:53;8.60;93.00
3275;DHT22;1649;53.672;10.064;2024-03-08T11:13:36;8.80;93.80
3275;DHT22;1649;53.672;10.064;2024-03-08T11:16:07;8.70;94.20
3275;DHT22;1649;53.672;10.064;2024-03-08T11:18:33;8.50;93.40
3275;DHT22;1649;53.672;10.064;2024-03-08T11:21:02;8.30;93.40
3275;DHT22;1649;53.672;10.064;2024-03-08T11:23:32;8.50;93.90
3275;DHT22;1649;53.672;10.064;2024-03-08T11:25:59;8.50;94.10
3275;DHT22;1649;53.672;10.064;2024-03-08T11:28:25;8.40;93.50
3275;DHT22;1649;53.672;10.064;2024-03-08T11:33:27;8.20;93.60
3275;DHT22;1649;53.672;10.064;2024-03-08T11:36:10;8.30;93.80
3275;DHT22;1649;53.672;10.064;2024-03-08T11:38:41;8.50;94.40
3275;DHT22;1649;53.672;10.064;2024-03-08T11:41:07;8.40;93.40
3275;DHT22;1649;53.672;10.064;2024-03-08T11:43:33;8.40;93.20
3275;DHT22;1649;53.672;10.064;2024-03-08T11:46:11;8.50;93.70
3275;DHT22;1649;53.672;10.064;2024-03-08T11:48:44;8.40;93.20
3275;DHT22;1649;53.672;10.064;2024-03-08T11:51:11;8.70;94.30
3275;DHT22;1649;53.672;10.064;2024-03-08T11:53:38;8.50;92.20
3275;DHT22;1649;53.672;10.064;2024-03-08T11:56:11;8.50;91.70
3275;DHT22;1649;53.672;10.064;2024-03-08T11:58:38;8.50;91.20
3275;DHT22;1649;53.672;10.064;2024-03-08T12:01:05;8.60;90.80
3275;DHT22;1649;53.672;10.064;2024-03-08T12:03:31;8.80;91.50
3275;DHT22;1649;53.672;10.064;2024-03-08T12:05:59;8.90;90.90
3275;DHT22;1649;53.672;10.064;2024-03-08T12:08:25;8.80;90.80
3275;DHT22;1649;53.672;10.064;2024-03-08T12:10:54;9.00;90.80
3275;DHT22;1649;53.672;10.064;2024-03-08T12:13:28;9.10;90.70
3275;DHT22;1649;53.672;10.064;2024-03-08T12:15:56;9.10;90.70
3275;DHT22;1649;53.672;10.064;2024-03-08T12:18:24;8.90;90.40
3275;DHT22;1649;53.672;10.064;2024-03-08T12:20:49;9.10;90.90
3275;DHT22;1649;53.672;10.064;2024-03-08T12:23:15;9.30;91.20
3275;DHT22;1649;53.672;10.064;2024-03-08T12:25:42;9.10;90.80
3275;DHT22;1649;53.672;10.064;2024-03-08T12:28:12;9.30;90.80
3275;DHT22;1649;53.672;10.064;2024-03-08T12:30:49;9.40;91.60
3275;DHT22;1649;53.672;10.064;2024-03-08T12:33:16;9.20;90.40
3275;DHT22;1649;53.672;10.064;2024-03-08T12:35:54;9.30;90.90
3275;DHT22;1649;53.672;10.064;2024-03-08T12:38:21;9.20;90.60
3275;DHT22;1649;53.672;10.064;2024-03-08T12:40:50;9.40;91.10
3275;DHT22;1649;53.672;10.064;2024-03-08T12:43:16;9.30;90.70
3275;DHT22;1649;53.672;10.064;2024-03-08T12:45:41;9.20;90.50
3275;DHT22;1649;53.672;10.064;2024-03-08T12:48:13;9.30;90.20
3275;DHT22;1649;53.672;10.064;2024-03-08T12:50:41;9.30;91.00
3275;DHT22;1649;53.672;10.064;2024-03-08T12:53:13;9.30;89.10
3275;DHT22;1649;53.672;10.064;2024-03-08T12:55:38;9.30;90.30
3275;DHT22;1649;53.672;10.064;2024-03-08T12:58:05;9.20;90.60
3275;DHT22;1649;53.672;10.064;2024-03-08T13:00:34;9.30;91.60
3275;DHT22;1649;53.672;10.064;2024-03-08T13:03:02;9.50;91.50
3275;DHT22;1649;53.672;10.064;2024-03-08T13:05:28;9.50;91.60
3275;DHT22;1649;53.672;10.064;2024-03-08T13:07:53;9.50;91.10
3275;DHT22;1649;53.672;10.064;2024-03-08T13:10:20;9.40;90.40
3275;DHT22;1649;53.672;10.064;2024-03-08T13:12:45;9.50;91.80
3275;DHT22;1649;53.672;10.064;2024-03-08T13:15:11;9.60;91.10
3275;DHT22;1649;53.672;10.064;2024-03-08T13:17:45;9.60;91.20
3275;DHT22;1649;53.672;10.064;2024-03-08T13:20:11;9.50;89.50
3275;DHT22;1649;53.672;10.064;2024-03-08T13:22:42;9.60;90.20
3275;DHT22;1649;53.672;10.064;2024-03-08T13:25:08;9.60;89.60
3275;DHT22;1649;53.672;10.064;2024-03-08T13:27:39;9.60;90.00
3275;DHT22;1649;53.672;10.064;2024-03-08T13:30:06;9.60;90.90
3275;DHT22;1649;53.672;10.064;2024-03-08T13:32:32;9.50;87.90
3275;DHT22;1649;53.672;10.064;2024-03-08T13:34:57;9.40;88.50
3275;DHT22;1649;53.672;10.064;2024-03-08T13:37:23;9.50;89.20
3275;DHT22;1649;53.672;10.064;2024-03-08T13:39:49;9.60;88.10
3275;DHT22;1649;53.672;10.064;2024-03-08T13:42:14;9.50;87.50
3275;DHT22;1649;53.672;10.064;2024-03-08T13:44:50;9.50;87.50
3275;DHT22;1649;53.672;10.064;2024-03-08T13:47:16;9.40;88.50
3275;DHT22;1649;53.672;10.064;2024-03-08T13:49:42;9.30;88.40
3275;DHT22;1649;53.672;10.064;2024-03-08T13:52:11;9.40;87.70
3275;DHT22;1649;53.672;10.064;2024-03-08T13:54:41;9.10;87.60
3275;DHT22;1649;53.672;10.064;2024-03-08T13:57:07;9.20;89.70
3275;DHT22;1649;53.672;10.064;2024-03-08T13:59:33;9.30;88.60
3275;DHT22;1649;53.672;10.064;2024-03-08T14:02:01;9.20;90.10
3275;DHT22;1649;53.672;10.064;2024-03-08T14:04:30;9.40;88.80
3275;DHT22;1649;53.672;10.064;2024-03-08T14:06:55;9.40;90.10
3275;DHT22;1649;53.672;10.064;2024-03-08T14:09:29;9.40;90.20
3275;DHT22;1649;53.672;10.064;2024-03-08T14:11:56;9.30;88.00
3275;DHT22;1649;53.672;10.064;2024-03-08T14:14:22;9.20;88.90
3275;DHT22;1649;53.672;10.064;2024-03-08T14:16:51;9.00;89.10
3275;DHT22;1649;53.672;10.064;2024-03-08T14:19:23;9.00;90.00
3275;DHT22;1649;53.672;10.064;2024-03-08T14:21:48;8.90;90.00
3275;DHT22;1649;53.672;10.064;2024-03-08T14:24:15;8.90;91.00
3275;DHT22;1649;53.672;10.064;2024-03-08T14:26:42;9.10;90.70
3275;DHT22;1649;53.672;10.064;2024-03-08T14:29:08;9.10;90.90
3275;DHT22;1649;53.672;10.064;2024-03-08T14:31:35;9.20;90.60
3275;DHT22;1649;53.672;10.064;2024-03-08T14:34:01;9.20;90.00
3275;DHT22;1649;53.672;10.064;2024-03-08T14:36:31;9.10;89.30
3275;DHT22;1649;53.672;10.064;2024-03-08T14:38:57;9.00;88.50
3275;DHT22;1649;53.672;10.064;2024-03-08T14:41:22;8.90;89.60
3275;DHT22;1649;53.672;10.064;2024-03-08T14:43:48;9.00;90.40
3275;DHT22;1649;53.672;10.064;2024-03-08T14:46:15;8.90;88.80
3275;DHT22;1649;53.672;10.064;2024-03-08T14:48:47;8.90;89.70
3275;DHT22;1649;53.672;10.064;2024-03-08T14:51:13;8.80;87.50
3275;DHT22;1649;53.672;10.064;2024-03-08T14:53:42;8.80;89.10
3275;DHT22;1649;53.672;10.064;2024-03-08T14:56:11;8.80;89.60
3275;DHT22;1649;53.672;10.064;2024-03-08T14:58:37;8.90;89.60
3275;DHT22;1649;53.672;10.064;2024-03-08T15:01:04;8.90;89.70
3275;DHT22;1649;53.672;10.064;2024-03-08T15:03:34;8.90;89.50
3275;DHT22;1649;53.672;10.064;2024-03-08T15:06:01;8.90;90.00
3275;DHT22;1649;53.672;10.064;2024-03-08T15:08:26;8.90;90.30
3275;DHT22;1649;53.672;10.064;2024-03-08T15:10:52;9.00;89.10
3275;DHT22;1649;53.672;10.064;2024-03-08T15:13:20;9.10;89.10
3275;DHT22;1649;53.672;10.064;2024-03-08T15:15:48;9.00;89.20
3275;DHT22;1649;53.672;10.064;2024-03-08T15:18:20;8.80;89.10
3275;DHT22;1649;53.672;10.064;2024-03-08T15:20:46;8.80;89.20
3275;DHT22;1649;53.672;10.064;2024-03-08T15:23:12;8.80;90.20
3275;DHT22;1649;53.672;10.064;2024-03-08T15:25:39;8.80;90.10
3275;DHT22;1649;53.672;10.064;2024-03-08T15:28:07;8.80;89.80
3275;DHT22;1649;53.672;10.064;2024-03-08T15:30:40;8.70;89.90
3275;DHT22;1649;53.672;10.064;2024-03-08T15:33:05;8.60;90.20
3275;DHT22;1649;53.672;10.064;2024-03-08T15:35:35;8.60;90.20
3275;DHT22;1649;53.672;10.064;2024-03-08T15:38:03;8.60;90.60
3275;DHT22;1649;53.672;10.064;2024-03-08T15:40:29;8.60;90.30
3275;DHT22;1649;53.672;10.064;2024-03-08T15:42:59;8.50;90.20
3275;DHT22;1649;53.672;10.064;2024-03-08T15:45:25;8.50;90.20
3275;DHT22;1649;53.672;10.064;2024-03-08T15:47:54;8.50;90.20
3275;DHT22;1649;53.672;10.064;2024-03-08T15:50:20;8.40;90.40
3275;DHT22;1649;53.672;10.064;2024-03-08T15:52:49;8.50;90.90
3275;DHT22;1649;53.672;10.064;2024-03-08T15:55:18;8.50;90.60
3275;DHT22;1649;53.672;10.064;2024-03-08T15:57:48;8.40;90.20
3275;DHT22;1649;53.672;10.064;2024-03-08T16:00:18;8.30;90.40
3275;DHT22;1649;53.672;10.064;2024-03-08T16:02:56;8.20;90.70
3275;DHT22;1649;53.672;10.064;2024-03-08T16:05:22;8.20;91.20
3275;DHT22;1649;53.672;10.064;2024-03-08T16:07:47;8.10;90.90
3275;DHT22;1649;53.672;10.064;2024-03-08T16:10:13;8.10;91.30